Time;durP1;ratioP1;P1;durP2;ratioP2;P2;SDS_P1;SDS_P2;PMS_P1;PMS_P2;Temp;Humidity;BMP_temperature;BMP_pressure;BME280_temperature;BME280_humidity;BME280_pressure;Samples;Min_cycle;Max_cycle;Signal;HPM_P1;HPM_P2
2022/04/25 00:01:14;;;;;;;12.05;8.32;;;;;;;7.36;75.10;100818.06;5008733;28;20501;-67
2022/04/25 00:03:40;;;;;;;11.60;8.23;;;;;;;7.34;75.50;100822.53;5008855;28;20037;-67
2022/04/25 00:06:05;;;;;;;13.50;9.18;;;;;;;7.34;75.93;100827.69;5008548;28;20038;-66
2022/04/25 00:08:31;;;;;;;15.23;9.10;;;;;;;7.33;75.67;100826.00;5008801;28;20426;-68
2022/04/25 00:10:57;;;;;;;13.77;8.75;;;;;;;7.32;75.33;100824.34;5008306;28;20064;-67
2022/04/25 00:13:22;;;;;;;12.73;9.40;;;;;;;7.19;75.62;100816.63;5008013;28;20449;-66
2022/04/25 00:15:48;;;;;;;13.93;9.45;;;;;;;7.15;76.50;100822.09;5008087;28;20069;-66
2022/04/25 00:18:13;;;;;;;14.57;9.35;;;;;;;7.09;76.37;100812.19;5007774;28;20104;-67
2022/04/25 00:20:39;;;;;;;13.52;9.70;;;;;;;7.22;77.21;100832.81;5008579;28;20029;-66
2022/04/25 00:23:05;;;;;;;12.00;9.00;;;;;;;7.26;76.89;100839.44;5008531;28;20156;-67
2022/04/25 00:25:34;;;;;;;11.85;8.88;;;;;;;7.23;76.37;100835.31;5007822;28;20084;-66
2022/04/25 00:28:01;;;;;;;13.18;9.35;;;;;;;7.22;77.10;100832.81;5007998;28;20021;-66
2022/04/25 00:30:28;;;;;;;14.88;10.02;;;;;;;7.21;76.48;100832.00;5007837;28;20073;-66
2022/04/25 00:32:57;;;;;;;14.77;9.40;;;;;;;7.17;77.09;100840.88;5008139;28;20021;-66
2022/04/25 00:35:23;;;;;;;11.93;9.18;;;;;;;7.13;77.20;100834.28;5007760;28;20025;-67
2022/04/25 00:37:49;;;;;;;14.15;9.50;;;;;;;7.11;76.76;100836.13;5006811;28;20029;-66
2022/04/25 00:40:15;;;;;;;13.13;10.27;;;;;;;7.07;76.83;100829.53;5007555;28;20072;-66
2022/04/25 00:42:41;;;;;;;13.73;10.00;;;;;;;7.06;77.03;100833.03;5007502;28;20386;-66
2022/04/25 00:45:08;;;;;;;13.25;9.23;;;;;;;7.00;77.19;100836.03;5007339;28;20061;-66
2022/04/25 00:47:34;;;;;;;13.48;10.30;;;;;;;6.89;78.36;100827.25;5006731;28;20021;-66
2022/04/25 00:49:59;;;;;;;13.52;10.00;;;;;;;6.82;78.01;100825.97;5023062;28;20493;-67
2022/04/25 00:52:24;;;;;;;13.05;9.65;;;;;;;6.83;78.10;100827.66;5007675;28;20466;-66
2022/04/25 00:54:50;;;;;;;15.10;10.43;;;;;;;6.75;78.07;100824.72;5007706;28;20037;-67
2022/04/25 00:57:15;;;;;;;14.75;10.70;;;;;;;6.79;78.37;100831.34;5007339;28;20030;-67
2022/04/25 00:59:41;;;;;;;14.23;10.57;;;;;;;6.76;78.18;100833.28;5007613;28;20038;-67
2022/04/25 01:02:07;;;;;;;16.55;10.48;;;;;;;6.78;78.58;100840.00;5007773;28;20060;-66
2022/04/25 01:04:32;;;;;;;14.13;9.98;;;;;;;6.77;78.44;100835.78;5006181;28;20030;-66
2022/04/25 01:06:57;;;;;;;15.40;10.48;;;;;;;6.72;78.06;100832.69;5007597;28;20026;-66
2022/04/25 01:09:25;;;;;;;13.25;9.95;;;;;;;6.68;78.49;100828.66;5006764;28;20026;-67
2022/04/25 01:11:52;;;;;;;14.13;10.50;;;;;;;6.72;78.01;100837.84;5005946;28;20132;-67
2022/04/25 01:14:19;;;;;;;13.55;10.65;;;;;;;6.66;79.19;100825.34;5006840;28;20029;-66
2022/04/25 01:16:45;;;;;;;15.02;10.63;;;;;;;6.65;79.43;100834.00;5006756;28;20025;-66
2022/04/25 01:19:11;;;;;;;13.85;10.20;;;;;;;6.63;78.71;100821.22;5006746;28;20664;-66
2022/04/25 01:22:14;;;;;;;13.00;10.02;;;;;;;6.71;78.65;100838.78;5007581;28;20030;-68
2022/04/25 01:27:26;;;;;;;15.13;10.63;;;;;;;6.65;79.08;100826.25;4965073;28;20069;-66
2022/04/25 01:29:53;;;;;;;14.07;10.63;;;;;;;6.62;79.30;100829.88;4981161;28;20434;-66
2022/04/25 01:32:21;;;;;;;15.10;11.13;;;;;;;6.55;79.30;100817.50;4968191;28;20495;-66
2022/04/25 01:34:46;;;;;;;15.43;10.80;;;;;;;6.50;80.01;100809.22;4984785;28;20451;-66
2022/04/25 01:37:15;;;;;;;13.00;11.50;;;;;;;6.48;79.58;100822.22;4984737;28;20041;-67
2022/04/25 01:39:54;;;;;;;13.68;10.40;;;;;;;6.59;79.45;100831.81;4984054;28;20069;-66
2022/04/25 01:42:20;;;;;;;14.38;11.63;;;;;;;6.56;79.47;100827.69;4982229;28;20103;-66
2022/04/25 01:44:47;;;;;;;13.93;11.27;;;;;;;6.53;80.04;100824.47;4983970;28;20054;-66
2022/04/25 01:47:13;;;;;;;14.57;11.73;;;;;;;6.58;79.59;100835.31;4984381;28;20049;-67
2022/04/25 01:49:38;;;;;;;14.27;10.80;;;;;;;6.56;79.42;100834.59;4984580;28;20433;-67
2022/04/25 01:52:08;;;;;;;14.93;12.02;;;;;;;6.50;80.33;100832.41;4984347;28;20089;-67
2022/04/25 01:54:33;;;;;;;15.65;11.98;;;;;;;6.48;80.53;100834.25;4984241;28;20073;-66
2022/04/25 01:57:00;;;;;;;14.23;11.57;;;;;;;6.46;80.21;100834.34;4968013;28;20030;-66
2022/04/25 01:59:26;;;;;;;16.05;11.80;;;;;;;6.42;80.23;100825.16;4998426;28;20049;-67
2022/04/25 02:01:52;;;;;;;15.73;11.30;;;;;;;6.42;80.10;100822.59;5005444;28;20029;-67
2022/04/25 02:04:19;;;;;;;15.95;11.68;;;;;;;6.44;80.33;100827.66;5005966;28;20442;-67
2022/04/25 02:06:44;;;;;;;14.07;11.73;;;;;;;6.42;80.23;100830.31;5006515;28;20029;-66
2022/04/25 02:09:09;;;;;;;14.57;11.48;;;;;;;6.37;79.90;100830.63;5006262;28;20029;-65
2022/04/25 02:11:35;;;;;;;15.25;11.63;;;;;;;6.36;80.50;100828.97;5006554;28;20045;-66
2022/04/25 02:14:00;;;;;;;14.35;10.98;;;;;;;6.31;79.88;100828.47;5007153;28;20036;-67
2022/04/25 02:16:26;;;;;;;15.73;11.65;;;;;;;6.26;79.88;100817.63;5006224;28;20373;-67
2022/04/25 02:18:53;;;;;;;17.15;12.35;;;;;;;6.30;80.63;100819.06;5006549;28;20373;-69
2022/04/25 02:21:18;;;;;;;16.42;11.90;;;;;;;6.31;80.17;100828.47;5005924;28;20025;-67
2022/04/25 02:23:44;;;;;;;15.75;11.95;;;;;;;6.24;80.36;100819.44;5005978;28;20030;-67
2022/04/25 02:26:10;;;;;;;17.30;11.98;;;;;;;6.23;80.30;100822.94;5006017;28;20524;-67
2022/04/25 02:28:36;;;;;;;15.40;11.77;;;;;;;6.25;80.75;100826.28;5006419;28;20102;-66
2022/04/25 02:31:04;;;;;;;16.25;12.05;;;;;;;6.22;80.30;100823.88;5021366;28;20088;-67
2022/04/25 02:33:30;;;;;;;17.30;12.27;;;;;;;6.15;81.37;100825.19;5006028;28;20034;-67
2022/04/25 02:35:55;;;;;;;16.30;11.75;;;;;;;6.16;81.14;100826.84;5006057;28;20034;-67
2022/04/25 02:38:21;;;;;;;16.23;12.18;;;;;;;6.09;81.10;100825.59;5004841;28;20389;-67
2022/04/25 02:40:46;;;;;;;16.52;12.55;;;;;;;6.05;81.58;100814.63;5005597;28;20156;-69
2022/04/25 02:43:11;;;;;;;16.73;11.90;;;;;;;6.06;81.41;100820.59;5006116;28;20101;-67
2022/04/25 02:45:37;;;;;;;16.13;12.02;;;;;;;6.01;81.21;100818.31;5006160;28;20041;-66
2022/04/25 02:48:03;;;;;;;16.42;12.88;;;;;;;6.06;81.01;100820.59;5004141;28;20022;-67
2022/04/25 02:50:28;;;;;;;16.23;12.15;;;;;;;6.07;81.75;100817.09;5005479;28;20045;-67
2022/04/25 02:52:54;;;;;;;16.98;12.48;;;;;;;6.09;81.51;100820.44;5003212;28;20034;-68
2022/04/25 02:55:22;;;;;;;17.35;11.98;;;;;;;6.08;81.52;100819.59;5005562;28;20548;-67
2022/04/25 02:57:48;;;;;;;16.65;12.13;;;;;;;6.07;80.87;100817.94;5005810;28;20029;-67
2022/04/25 03:00:14;;;;;;;17.65;11.63;;;;;;;6.02;81.24;100808.84;5005193;28;20422;-67
2022/04/25 03:02:39;;;;;;;18.20;12.60;;;;;;;6.03;81.41;100816.50;5005885;28;20034;-67
2022/04/25 03:05:05;;;;;;;18.10;13.60;;;;;;;6.04;81.66;100817.31;5005910;28;20014;-70
2022/04/25 03:07:31;;;;;;;16.38;13.07;;;;;;;6.04;81.70;100817.31;5004465;28;20044;-67
2022/04/25 03:09:57;;;;;;;16.20;13.35;;;;;;;6.02;81.39;100825.16;5003612;28;20068;-68
2022/04/25 03:12:23;;;;;;;19.42;13.45;;;;;;;6.00;81.72;100815.84;5005645;28;20088;-67
2022/04/25 03:14:49;;;;;;;19.60;13.68;;;;;;;5.91;82.45;100812.13;5006026;28;20355;-67
2022/04/25 03:17:14;;;;;;;20.15;14.32;;;;;;;5.90;82.71;100810.41;5005479;28;20025;-67
2022/04/25 03:19:40;;;;;;;16.48;12.60;;;;;;;5.86;82.34;100794.34;5005781;28;20028;-67
2022/04/25 03:22:05;;;;;;;18.75;13.77;;;;;;;5.93;82.42;100810.25;5005358;28;20034;-67
2022/04/25 03:24:31;;;;;;;20.15;14.60;;;;;;;5.91;82.69;100812.13;5005536;28;20426;-67
2022/04/25 03:26:57;;;;;;;16.80;13.10;;;;;;;5.92;82.85;100807.78;5005377;28;20040;-67
2022/04/25 03:29:22;;;;;;;17.67;13.20;;;;;;;5.90;82.22;100809.59;5004302;28;20431;-67
2022/04/25 03:31:48;;;;;;;17.38;12.73;;;;;;;5.89;82.41;100813.09;5005400;28;20492;-67
2022/04/25 03:34:13;;;;;;;15.63;13.20;;;;;;;5.89;82.19;100807.94;5021885;28;20033;-67
2022/04/25 03:36:38;;;;;;;18.73;13.75;;;;;;;5.89;82.64;100813.09;5009181;28;20068;-66
2022/04/25 03:39:04;;;;;;;17.67;13.13;;;;;;;5.82;82.52;100808.31;5009186;28;20113;-67
2022/04/25 03:41:31;;;;;;;18.48;13.18;;;;;;;5.88;82.34;100812.25;5008165;28;20025;-66
2022/04/25 03:43:57;;;;;;;19.50;14.55;;;;;;;5.80;82.62;100820.47;5008808;28;20512;-67
2022/04/25 03:46:22;;;;;;;18.92;13.73;;;;;;;5.82;82.50;100825.50;5008136;28;20036;-67
2022/04/25 03:48:47;;;;;;;19.10;13.63;;;;;;;5.81;82.64;100831.59;5007162;28;20302;-65
2022/04/25 03:51:14;;;;;;;17.00;13.55;;;;;;;5.82;82.98;100828.91;5006935;28;20029;-67
2022/04/25 03:53:39;;;;;;;19.42;14.02;;;;;;;5.70;82.40;100819.38;5007464;28;20293;-66
2022/04/25 03:58:49;;;;;;;19.25;14.02;;;;;;;5.77;82.25;100841.22;5009239;28;20240;-67
2022/04/25 04:01:14;;;;;;;17.83;13.93;;;;;;;5.74;82.37;100844.00;5007234;28;20112;-67
2022/04/25 04:03:39;;;;;;;18.75;14.65;;;;;;;5.75;82.72;100852.56;5000480;28;20140;-66
2022/04/25 04:06:05;;;;;;;17.23;13.48;;;;;;;5.74;82.15;100849.16;5007153;28;20426;-66
2022/04/25 04:08:31;;;;;;;18.95;14.63;;;;;;;5.73;82.72;100855.19;5007408;28;20018;-65
2022/04/25 04:10:56;;;;;;;20.52;14.52;;;;;;;5.69;83.19;100853.75;5007724;28;20037;-67
2022/04/25 04:13:22;;;;;;;18.58;14.10;;;;;;;5.69;82.95;100869.19;5006664;28;20526;-67
2022/04/25 04:15:47;;;;;;;20.45;14.32;;;;;;;5.66;84.19;100866.78;5023158;28;20399;-66
2022/04/25 04:18:13;;;;;;;19.92;15.15;;;;;;;5.67;84.37;100867.59;5006928;28;20128;-66
2022/04/25 04:20:38;;;;;;;18.95;15.07;;;;;;;5.62;84.27;100852.47;5007307;28;20568;-65
2022/04/25 04:23:04;;;;;;;18.23;14.93;;;;;;;5.71;84.16;100869.09;5007092;28;20033;-66
2022/04/25 04:25:32;;;;;;;20.67;15.13;;;;;;;5.67;84.21;100865.84;5008100;28;20030;-68
2022/04/25 04:27:57;;;;;;;20.10;14.77;;;;;;;5.68;84.86;100866.69;5007912;28;20072;-66
2022/04/25 04:30:23;;;;;;;21.70;14.55;;;;;;;5.70;84.63;100865.69;5005821;28;20114;-66
2022/04/25 04:32:52;;;;;;;19.77;15.20;;;;;;;5.72;84.59;100866.41;5008261;28;20030;-66
2022/04/25 04:38:04;;;;;;;17.90;14.43;;;;;;;5.75;84.90;100873.97;5008126;28;20044;-66
2022/04/25 04:40:29;;;;;;;19.52;15.32;;;;;;;5.74;85.30;100867.16;5007618;28;20037;-66
2022/04/25 04:42:55;;;;;;;19.27;15.57;;;;;;;5.68;85.04;100864.13;5008428;28;20552;-67
2022/04/25 04:45:21;;;;;;;20.27;15.38;;;;;;;5.70;84.92;100870.84;5007934;28;20046;-66
2022/04/25 04:47:47;;;;;;;20.33;15.35;;;;;;;5.78;85.04;100876.34;5007435;28;20069;-66
2022/04/25 04:50:14;;;;;;;21.40;16.25;;;;;;;5.74;85.27;100862.03;5006462;28;20033;-66
2022/04/25 04:52:44;;;;;;;20.48;15.65;;;;;;;5.81;85.42;100873.59;5006665;28;20359;-66
2022/04/25 04:55:10;;;;;;;21.42;16.13;;;;;;;5.91;85.15;100878.16;5007719;28;20037;-67
2022/04/25 04:57:38;;;;;;;20.05;15.25;;;;;;;5.86;85.11;100873.31;5007942;28;20061;-67
2022/04/25 05:00:08;;;;;;;21.63;16.35;;;;;;;5.95;85.06;100887.38;5007503;28;20536;-66
2022/04/25 05:02:34;;;;;;;20.42;16.55;;;;;;;5.94;85.46;100889.13;4996761;28;20056;-65
2022/04/25 05:05:00;;;;;;;19.67;16.38;;;;;;;5.90;85.38;100881.66;5006571;28;20469;-66
2022/04/25 05:07:25;;;;;;;18.15;15.57;;;;;;;5.95;84.94;100889.97;4997364;28;20026;-66
2022/04/25 05:09:51;;;;;;;19.67;16.15;;;;;;;5.97;85.90;100898.44;5007064;28;20033;-65
2022/04/25 05:12:16;;;;;;;21.25;16.27;;;;;;;5.98;85.75;100900.09;5006759;28;20034;-67
2022/04/25 05:14:42;;;;;;;21.02;16.90;;;;;;;6.00;85.82;100903.38;5006093;28;20185;-67
2022/04/25 05:17:07;;;;;;;22.40;17.25;;;;;;;6.00;85.34;100903.38;5007063;28;20517;-67
2022/04/25 05:19:32;;;;;;;22.75;16.70;;;;;;;6.04;85.72;100907.44;5007488;28;20052;-66
2022/04/25 05:21:58;;;;;;;19.77;16.10;;;;;;;6.09;85.29;100907.97;5006693;28;20433;-64
2022/04/25 05:24:23;;;;;;;24.00;17.45;;;;;;;6.07;85.20;100914.94;5006341;28;20545;-65
2022/04/25 05:26:48;;;;;;;22.25;17.45;;;;;;;6.08;86.44;100911.47;5007207;28;20041;-67
2022/04/25 05:29:14;;;;;;;19.45;16.10;;;;;;;6.12;85.31;100918.06;5006770;28;20029;-66
2022/04/25 05:31:40;;;;;;;23.88;18.08;;;;;;;6.06;85.98;100910.72;5005849;28;20116;-65
2022/04/25 05:34:05;;;;;;;21.38;17.65;;;;;;;6.16;86.18;100919.53;5007350;28;20507;-65
2022/04/25 05:36:30;;;;;;;23.60;18.10;;;;;;;6.19;86.39;100914.19;5007102;28;20061;-65
2022/04/25 05:38:56;;;;;;;21.95;18.25;;;;;;;6.22;85.89;100924.31;5005327;28;20389;-65
2022/04/25 05:41:21;;;;;;;23.10;18.63;;;;;;;6.23;85.97;100920.81;5004717;28;20492;-65
2022/04/25 05:43:47;;;;;;;22.27;18.25;;;;;;;6.29;86.52;100924.75;5005898;28;20172;-65
2022/04/25 05:46:12;;;;;;;21.58;18.48;;;;;;;6.36;86.06;100926.03;5004648;28;20088;-65
2022/04/25 05:54:06;;;;;;;23.42;19.23;;;;;;;6.44;86.41;100935.88;5006404;28;20037;-65
2022/04/25 05:56:32;;;;;;;26.15;19.77;;;;;;;6.51;86.47;100934.56;5005387;28;20018;-64
2022/04/25 05:58:57;;;;;;;23.85;20.25;;;;;;;6.52;86.11;100933.63;5005788;28;20493;-65
2022/04/25 06:01:22;;;;;;;23.30;19.42;;;;;;;6.52;86.82;100938.78;5005284;28;20369;-66
2022/04/25 06:03:47;;;;;;;24.05;20.05;;;;;;;6.55;85.93;100936.03;5006711;28;20030;-66
2022/04/25 06:06:13;;;;;;;23.42;19.85;;;;;;;6.57;86.35;100939.31;5006610;28;20368;-66
2022/04/25 06:08:38;;;;;;;23.63;20.20;;;;;;;6.61;86.67;100940.78;5006802;28;20028;-65
2022/04/25 06:11:04;;;;;;;25.42;20.70;;;;;;;6.60;86.97;100939.97;5006277;28;20458;-65
2022/04/25 06:13:29;;;;;;;24.60;20.55;;;;;;;6.68;86.79;100944.63;5006058;28;20021;-65
2022/04/25 06:15:54;;;;;;;26.40;21.25;;;;;;;6.69;87.25;100948.84;5001183;28;20113;-68
2022/04/25 06:18:20;;;;;;;27.92;20.95;;;;;;;6.71;87.18;100952.19;5002622;28;20366;-67
2022/04/25 06:20:45;;;;;;;24.38;21.08;;;;;;;6.73;86.58;100955.47;5005602;28;20413;-68
2022/04/25 06:23:10;;;;;;;27.80;22.60;;;;;;;6.70;86.56;100950.50;5005949;28;20033;-67
2022/04/25 06:25:39;;;;;;;25.80;22.38;;;;;;;6.76;86.55;100960.41;5006334;28;20022;-66
2022/04/25 06:28:04;;;;;;;25.77;21.50;;;;;;;6.80;86.97;100966.22;5006226;28;20057;-68
2022/04/25 06:30:30;;;;;;;28.05;24.23;;;;;;;6.78;87.17;100968.09;5004550;28;20101;-66
2022/04/25 06:32:57;;;;;;;30.20;23.70;;;;;;;6.75;87.09;100952.78;5004767;28;20441;-67
2022/04/25 06:35:22;;;;;;;26.10;23.25;;;;;;;6.83;86.92;100964.28;5005922;28;20029;-66
2022/04/25 06:37:49;;;;;;;28.65;24.48;;;;;;;6.83;87.17;100956.56;5005889;28;20033;-69
2022/04/25 06:40:14;;;;;;;28.83;25.25;;;;;;;6.88;87.41;100969.97;5005411;28;20033;-66
2022/04/25 06:42:40;;;;;;;29.90;25.58;;;;;;;6.88;87.29;100969.13;5005291;28;20425;-67
2022/04/25 06:45:06;;;;;;;28.48;25.08;;;;;;;6.90;86.94;100968.13;5005109;28;20068;-66
2022/04/25 06:47:31;;;;;;;31.23;24.92;;;;;;;6.93;86.76;100965.31;5004167;28;20044;-68
2022/04/25 06:49:57;;;;;;;29.27;25.35;;;;;;;6.94;87.30;100963.59;5001692;28;20037;-66
2022/04/25 06:52:23;;;;;;;29.38;24.98;;;;;;;7.05;86.90;100970.63;5003844;28;20117;-67
2022/04/25 06:54:49;;;;;;;29.65;25.92;;;;;;;7.06;86.81;100977.47;5005858;28;20389;-67
2022/04/25 06:57:14;;;;;;;31.15;25.77;;;;;;;7.07;86.40;100963.63;5004310;28;20454;-66
2022/04/25 06:59:39;;;;;;;31.20;27.23;;;;;;;7.04;86.96;100974.13;5006131;28;20036;-67
2022/04/25 07:02:05;;;;;;;29.00;25.83;;;;;;;7.08;86.79;100978.19;5005472;28;20363;-66
2022/04/25 07:04:30;;;;;;;32.40;28.05;;;;;;;7.07;87.11;100984.25;5005588;28;20036;-66
2022/04/25 07:06:56;;;;;;;31.20;26.58;;;;;;;7.07;87.26;100971.38;5006334;28;20025;-67
2022/04/25 07:09:21;;;;;;;32.35;26.02;;;;;;;7.06;87.34;100977.47;5007904;28;20466;-66
2022/04/25 07:11:47;;;;;;;31.08;27.13;;;;;;;7.09;87.44;100987.56;5009606;28;20469;-67
2022/04/25 07:14:14;;;;;;;30.60;27.27;;;;;;;7.08;87.25;100991.06;5008839;28;20017;-67
2022/04/25 07:16:41;;;;;;;31.75;27.02;;;;;;;7.09;87.74;100990.16;5009103;28;20184;-67
2022/04/25 07:19:06;;;;;;;32.47;27.95;;;;;;;7.06;87.44;100977.47;5009490;28;20034;-67
2022/04/25 07:29:47;;;;;;;32.88;27.13;;;;;;;7.16;87.72;100999.13;5009401;28;20076;-67
2022/04/25 07:32:16;;;;;;;32.55;28.05;;;;;;;7.17;87.22;100995.66;5009217;28;20049;-67
2022/04/25 07:34:43;;;;;;;32.92;27.98;;;;;;;7.18;88.07;100999.88;5008944;28;20038;-67
2022/04/25 07:37:09;;;;;;;31.42;27.30;;;;;;;7.17;87.50;101005.97;5008401;28;20080;-67
2022/04/25 07:39:34;;;;;;;32.47;28.98;;;;;;;7.12;87.58;100998.53;5008944;28;20072;-67
2022/04/25 07:42:00;;;;;;;34.10;28.52;;;;;;;7.14;87.78;101004.41;5008864;28;20029;-67
2022/04/25 07:44:26;;;;;;;32.13;28.73;;;;;;;7.19;88.10;101010.09;5008572;28;20041;-68
2022/04/25 07:46:52;;;;;;;33.58;29.50;;;;;;;7.22;87.84;101008.22;5009775;28;20025;-66
2022/04/25 07:49:17;;;;;;;36.30;29.50;;;;;;;7.20;88.10;101016.06;5007891;28;20030;-68
2022/04/25 07:51:42;;;;;;;33.00;29.20;;;;;;;7.26;88.32;101015.69;5008483;28;20350;-66
2022/04/25 07:54:09;;;;;;;33.13;29.58;;;;;;;7.23;88.99;101015.91;5008670;28;20446;-67
2022/04/25 07:56:35;;;;;;;30.77;27.50;;;;;;;7.26;88.42;101020.00;5007723;28;20038;-66
2022/04/25 07:59:01;;;;;;;31.92;28.50;;;;;;;7.26;88.46;101020.84;5001544;28;20034;-67
2022/04/25 08:01:27;;;;;;;32.03;28.60;;;;;;;7.18;88.94;101013.59;5001791;28;20040;-67
2022/04/25 08:03:54;;;;;;;29.40;26.08;;;;;;;7.29;88.39;101020.66;5006160;28;20026;-66
2022/04/25 08:06:20;;;;;;;30.17;26.60;;;;;;;7.31;88.65;101029.09;5003774;28;20136;-66
2022/04/25 08:08:48;;;;;;;29.70;26.50;;;;;;;7.35;89.47;101030.56;5008568;28;20036;-67
2022/04/25 08:11:13;;;;;;;28.63;25.45;;;;;;;7.34;89.19;101023.78;5006891;28;20053;-66
2022/04/25 08:19:06;;;;;;;23.88;21.42;;;;;;;7.36;88.46;101032.22;5005529;28;20188;-67
2022/04/25 08:21:31;;;;;;;24.52;22.00;;;;;;;7.42;88.58;101036.97;5008107;28;20033;-67
2022/04/25 08:23:57;;;;;;;24.40;21.88;;;;;;;7.46;88.56;101053.09;5007861;28;20037;-67
2022/04/25 08:26:22;;;;;;;25.15;22.45;;;;;;;7.47;88.66;101048.78;5007586;28;20022;-67
2022/04/25 08:28:48;;;;;;;24.42;21.92;;;;;;;7.44;88.49;101050.59;5006651;28;20030;-68
2022/04/25 08:31:13;;;;;;;24.02;21.63;;;;;;;7.41;87.75;101050.81;5007293;28;20504;-67
2022/04/25 08:33:43;;;;;;;24.80;22.20;;;;;;;7.41;88.16;101050.81;5008314;28;20064;-67
2022/04/25 08:36:08;;;;;;;24.23;21.77;;;;;;;7.38;88.17;101057.91;5006413;28;20030;-67
2022/04/25 08:38:34;;;;;;;24.50;22.00;;;;;;;7.41;88.16;101060.31;5008495;28;20040;-68
2022/04/25 08:41:00;;;;;;;27.00;24.10;;;;;;;7.39;88.67;101062.97;5008001;28;20449;-67
2022/04/25 08:43:26;;;;;;;27.27;24.38;;;;;;;7.30;88.53;101053.25;5006915;28;20033;-67
2022/04/25 08:45:53;;;;;;;26.63;23.83;;;;;;;7.36;88.10;101062.38;5007719;28;21204;-67
2022/04/25 08:48:21;;;;;;;27.45;24.55;;;;;;;7.37;88.76;101070.00;5007846;28;20026;-67
2022/04/25 08:50:50;;;;;;;28.60;23.92;;;;;;;7.41;88.21;101071.47;5022651;28;20033;-67
2022/04/25 08:53:17;;;;;;;28.25;25.33;;;;;;;7.39;88.65;101062.97;5006394;28;20944;-67
2022/04/25 08:55:42;;;;;;;29.38;26.23;;;;;;;7.41;89.00;101071.47;5007427;28;20026;-67
2022/04/25 08:58:10;;;;;;;26.58;23.60;;;;;;;7.38;87.97;101076.81;5007676;28;20381;-67
2022/04/25 09:00:36;;;;;;;26.23;23.52;;;;;;;7.31;87.96;101075.56;5006221;28;20022;-67
2022/04/25 09:03:01;;;;;;;25.95;23.30;;;;;;;7.22;88.19;101076.13;5007680;28;20041;-67
2022/04/25 09:05:27;;;;;;;26.50;23.70;;;;;;;7.27;89.07;101081.81;5006681;28;20041;-67
2022/04/25 09:07:52;;;;;;;27.35;24.42;;;;;;;7.25;89.23;101078.53;5008121;28;20357;-67
2022/04/25 09:10:19;;;;;;;27.17;24.42;;;;;;;7.32;89.38;101087.53;5006924;28;20096;-66
2022/04/25 09:12:46;;;;;;;27.88;24.98;;;;;;;7.35;89.56;101092.50;5007534;28;20153;-67
2022/04/25 09:15:12;;;;;;;26.60;23.83;;;;;;;7.33;88.40;101096.91;5007801;28;20057;-67
2022/04/25 09:17:38;;;;;;;28.35;25.30;;;;;;;7.39;89.96;101099.09;5007687;28;20076;-67
2022/04/25 09:20:08;;;;;;;26.27;23.42;;;;;;;7.45;89.78;101103.03;5007191;28;20030;-67
2022/04/25 09:22:41;;;;;;;26.92;24.05;;;;;;;7.43;89.18;101116.06;5006154;28;20496;-67
2022/04/25 09:25:11;;;;;;;28.38;25.25;;;;;;;7.48;89.35;101117.53;5004838;28;20037;-68
2022/04/25 09:27:39;;;;;;;30.17;26.33;;;;;;;7.52;89.68;101108.66;5004619;28;20038;-67
2022/04/25 09:30:23;;;;;;;27.73;24.83;;;;;;;7.53;89.51;101116.31;5005383;28;20034;-67
2022/04/25 09:32:51;;;;;;;30.35;25.25;;;;;;;7.47;88.72;101105.53;5006298;28;20065;-67
2022/04/25 09:35:32;;;;;;;27.50;24.48;;;;;;;7.52;89.47;101109.50;5007028;28;20857;-68
2022/04/25 09:38:00;;;;;;;30.80;27.45;;;;;;;7.57;89.82;101111.75;5007455;28;20068;-67
2022/04/25 09:40:30;;;;;;;31.13;25.95;;;;;;;7.61;89.98;101113.22;5006014;28;20180;-67
2022/04/25 09:43:14;;;;;;;30.63;27.25;;;;;;;7.67;89.58;101115.41;5006945;28;20615;-67
2022/04/25 09:45:42;;;;;;;30.55;26.60;;;;;;;7.67;88.54;101117.97;5021778;28;20088;-67
2022/04/25 09:48:16;;;;;;;29.92;26.73;;;;;;;7.72;88.69;101113.34;5002083;28;20034;-67
2022/04/25 09:50:42;;;;;;;32.13;27.63;;;;;;;7.74;88.57;101119.22;4996321;28;20033;-67
2022/04/25 09:53:08;;;;;;;31.75;27.98;;;;;;;7.76;88.88;101122.56;5001500;28;20402;-68
2022/04/25 09:55:39;;;;;;;33.67;29.90;;;;;;;7.77;88.42;101124.22;4987317;28;20022;-67
2022/04/25 09:58:20;;;;;;;31.65;28.20;;;;;;;7.75;87.86;101114.94;4987336;28;20379;-69
2022/04/25 10:00:47;;;;;;;33.60;29.45;;;;;;;7.77;87.89;101129.38;4995245;28;20088;-68
2022/04/25 10:03:15;;;;;;;33.63;29.98;;;;;;;7.77;87.86;101129.38;5006021;28;20052;-67
2022/04/25 10:05:46;;;;;;;30.75;27.35;;;;;;;7.74;87.12;101124.41;5006778;28;20484;-67
2022/04/25 10:08:18;;;;;;;32.05;28.65;;;;;;;7.81;87.04;101141.16;5006011;28;20412;-67
2022/04/25 10:10:53;;;;;;;34.72;29.77;;;;;;;7.81;88.03;101141.16;5006218;28;20541;-67
2022/04/25 10:13:19;;;;;;;33.15;28.33;;;;;;;7.85;86.78;101136.59;5006067;28;20109;-67
2022/04/25 10:15:46;;;;;;;34.85;29.10;;;;;;;7.82;87.12;101142.81;5006327;28;20410;-66
2022/04/25 10:18:12;;;;;;;32.63;29.20;;;;;;;7.85;87.81;101147.75;5007440;28;20462;-66
2022/04/25 10:20:40;;;;;;;32.75;29.25;;;;;;;7.92;87.82;101149.03;5005858;28;20034;-67
2022/04/25 10:23:12;;;;;;;31.75;28.20;;;;;;;7.86;86.06;101141.69;5006207;28;20030;-67
2022/04/25 10:25:39;;;;;;;33.85;29.20;;;;;;;7.95;86.21;101148.81;5006454;28;20033;-67
2022/04/25 10:28:09;;;;;;;32.85;27.45;;;;;;;7.98;85.14;101148.66;5006560;28;20064;-68
2022/04/25 10:30:36;;;;;;;32.00;27.95;;;;;;;8.01;86.23;101151.94;5005313;28;20113;-67
2022/04/25 10:33:20;;;;;;;32.50;29.00;;;;;;;8.06;86.98;101136.97;5001739;28;20533;-68
2022/04/25 10:35:51;;;;;;;34.33;29.88;;;;;;;8.15;87.47;101154.47;4969454;28;20035;-67
2022/04/25 10:38:48;;;;;;;31.25;27.35;;;;;;;8.21;85.49;101152.28;4985907;28;20541;-67
2022/04/25 10:44:17;;;;;;;33.53;29.92;;;;;;;8.31;85.98;101159.41;5002762;28;20578;-68
2022/04/25 10:47:05;;;;;;;31.85;28.42;;;;;;;8.38;85.41;101161.53;5005003;28;20057;-68
2022/04/25 10:49:32;;;;;;;34.55;29.70;;;;;;;8.33;85.05;101158.41;5004907;28;20124;-68
2022/04/25 10:51:58;;;;;;;32.38;28.52;;;;;;;8.31;85.27;101160.25;5005326;28;20470;-67
2022/04/25 10:54:27;;;;;;;30.80;27.50;;;;;;;8.32;83.97;101161.09;5005053;28;20041;-67
2022/04/25 10:57:13;;;;;;;31.30;27.35;;;;;;;8.38;84.27;101169.28;5003881;28;20018;-67
2022/04/25 10:59:39;;;;;;;32.50;28.77;;;;;;;8.34;83.95;101165.22;5005576;28;20034;-67
2022/04/25 11:02:25;;;;;;;34.90;31.27;;;;;;;8.37;84.16;101169.38;5005729;28;20032;-67
2022/04/25 11:05:12;;;;;;;36.83;29.27;;;;;;;8.38;84.59;101166.72;5005340;28;20032;-67
2022/04/25 11:07:40;;;;;;;35.53;28.73;;;;;;;8.36;84.61;101178.06;5001363;28;20492;-68
2022/04/25 11:10:06;;;;;;;33.28;28.38;;;;;;;8.41;84.73;101176.81;5003593;28;20359;-67
2022/04/25 11:12:57;;;;;;;35.20;31.55;;;;;;;8.42;84.28;101178.47;5005608;28;20044;-67
2022/04/25 11:15:56;;;;;;;33.67;29.10;;;;;;;8.51;84.34;101182.22;5003732;28;20105;-67
2022/04/25 11:18:34;;;;;;;33.50;28.90;;;;;;;8.56;84.12;101179.31;4971520;28;20038;-67
2022/04/25 11:21:14;;;;;;;32.95;29.40;;;;;;;8.54;83.74;101186.34;5004818;28;20033;-67
2022/04/25 11:23:43;;;;;;;34.58;29.00;;;;;;;8.57;84.49;101186.16;5002502;28;20072;-67
2022/04/25 11:26:11;;;;;;;33.10;27.35;;;;;;;8.57;83.28;101186.16;5004534;28;20036;-67
2022/04/25 11:29:03;;;;;;;33.55;28.10;;;;;;;8.65;83.40;101189.03;5004933;28;20026;-67
2022/04/25 11:31:30;;;;;;;32.70;28.63;;;;;;;8.67;83.66;101187.19;4986543;28;20034;-67
2022/04/25 11:33:57;;;;;;;29.35;26.30;;;;;;;8.69;81.63;101182.72;4998632;28;20030;-67
2022/04/25 11:36:24;;;;;;;30.27;26.92;;;;;;;8.67;82.29;101192.38;5004802;28;20459;-67
2022/04/25 11:41:36;;;;;;;32.70;29.23;;;;;;;8.71;82.08;101194.63;5006507;28;20164;-67
2022/04/25 11:44:02;;;;;;;32.75;29.15;;;;;;;8.71;81.90;101198.97;5004812;28;20065;-67
2022/04/25 11:46:29;;;;;;;32.15;28.85;;;;;;;8.76;82.11;101202.06;5000756;28;20482;-67
2022/04/25 11:48:55;;;;;;;32.80;29.25;;;;;;;8.79;81.71;101199.28;5002840;28;20517;-67
2022/04/25 11:51:40;;;;;;;30.77;27.70;;;;;;;8.89;80.98;101197.72;5004960;28;20026;-67